Terminal Aerodrome Forecast
Issued by NWS

Home | Current Version | Previous Version | Text Only | Print | Product List | Glossary On
Versions: 1 2 3 4 5 6 7 8 9 10 11 12 13 14 15 16
000
FTUS46 KMFR 201416 AAA
TAFLMT
TAF AMD
KLMT 201416Z 2014/2112 14012G20KT P6SM SCT030 OVC050
     FM201700 16011KT 2SM -SN BKN025 OVC050
     FM210000 19007KT P6SM -SHSN OVC015
     FM210200 17006KT P6SM -SHSN OVC025=

USA.gov is the U.S. government's official web portal to all federal, state and local government web resources and services.